Time;durP1;ratioP1;P1;durP2;ratioP2;P2;SDS_P1;SDS_P2;PMS_P1;PMS_P2;Temp;Humidity;BMP_temperature;BMP_pressure;BME280_temperature;BME280_humidity;BME280_pressure;Samples;Min_cycle;Max_cycle;Signal;HPM_P1;HPM_P2
2020/12/27 00:01:02;;;;;;;5.18;3.60;;;;;;;;;;4938060;29;20043;-77
2020/12/27 00:03:28;;;;;;;5.07;3.42;;;;;;;;;;4922592;29;20122;-77
2020/12/27 00:05:54;;;;;;;5.78;3.72;;;;;;;;;;4922196;29;20486;-77
2020/12/27 00:08:20;;;;;;;6.90;3.60;;;;;;;;;;4922471;29;20052;-77
2020/12/27 00:10:46;;;;;;;6.63;4.00;;;;;;;;;;4938090;29;20047;-77
2020/12/27 00:13:12;;;;;;;7.78;4.03;;;;;;;;;;4922259;29;20118;-77
2020/12/27 00:15:39;;;;;;;6.90;4.05;;;;;;;;;;4937658;29;20051;-77
2020/12/27 00:18:05;;;;;;;6.32;3.38;;;;;;;;;;4922081;29;20051;-77
2020/12/27 00:20:31;;;;;;;7.85;3.85;;;;;;;;;;4922051;29;20047;-77
2020/12/27 00:22:57;;;;;;;7.68;4.05;;;;;;;;;;4907243;29;20102;-77
2020/12/27 00:25:23;;;;;;;5.00;3.75;;;;;;;;;;4921925;29;20098;-77
2020/12/27 00:27:49;;;;;;;5.68;3.63;;;;;;;;;;4922364;29;20055;-77
2020/12/27 00:30:16;;;;;;;6.53;4.40;;;;;;;;;;4921983;29;20110;-77
2020/12/27 00:32:42;;;;;;;5.13;3.55;;;;;;;;;;4937946;29;20094;-76
2020/12/27 00:35:08;;;;;;;5.95;3.42;;;;;;;;;;4954330;29;20082;-76
2020/12/27 00:37:34;;;;;;;5.45;3.70;;;;;;;;;;4921712;29;20498;-76
2020/12/27 00:40:00;;;;;;;6.53;3.15;;;;;;;;;;4954647;29;20098;-76
2020/12/27 00:42:26;;;;;;;5.43;3.42;;;;;;;;;;4937966;29;20063;-76
2020/12/27 00:44:52;;;;;;;6.00;4.10;;;;;;;;;;4937312;29;20089;-77
2020/12/27 00:47:18;;;;;;;9.52;3.85;;;;;;;;;;4921397;29;20333;-77
2020/12/27 00:49:44;;;;;;;5.22;3.55;;;;;;;;;;4937575;29;20059;-77
2020/12/27 00:52:10;;;;;;;5.88;3.72;;;;;;;;;;4939704;29;20114;-77
2020/12/27 00:54:37;;;;;;;4.78;3.03;;;;;;;;;;4918440;29;20106;-77
2020/12/27 00:57:03;;;;;;;4.82;3.50;;;;;;;;;;4918288;29;20081;-76
2020/12/27 00:59:29;;;;;;;7.28;3.50;;;;;;;;;;4935339;29;20051;-77
2020/12/27 01:01:55;;;;;;;6.20;3.55;;;;;;;;;;4902652;29;20554;-77
2020/12/27 01:04:22;;;;;;;6.72;3.72;;;;;;;;;;4912457;29;20486;-77
2020/12/27 01:06:48;;;;;;;7.75;4.65;;;;;;;;;;4945891;29;20055;-78
2020/12/27 01:09:14;;;;;;;6.07;3.20;;;;;;;;;;4932980;29;20054;-78
2020/12/27 01:11:41;;;;;;;7.38;3.00;;;;;;;;;;4933774;29;20565;-79
2020/12/27 01:14:07;;;;;;;5.57;3.80;;;;;;;;;;4930969;29;20455;-79
2020/12/27 01:16:33;;;;;;;5.55;3.90;;;;;;;;;;4931018;29;20094;-78
2020/12/27 01:18:59;;;;;;;8.52;4.28;;;;;;;;;;4925864;29;20059;-76
2020/12/27 01:21:27;;;;;;;6.30;4.50;;;;;;;;;;4938064;29;20055;-77
2020/12/27 01:23:54;;;;;;;5.57;3.78;;;;;;;;;;4922296;29;20051;-76
2020/12/27 01:26:30;;;;;;;7.43;4.10;;;;;;;;;;4937578;29;20106;-77
2020/12/27 01:28:56;;;;;;;5.30;3.60;;;;;;;;;;4905574;29;20407;-77
2020/12/27 01:31:23;;;;;;;7.80;3.72;;;;;;;;;;4905148;29;20196;-77
2020/12/27 01:33:49;;;;;;;6.88;3.83;;;;;;;;;;4921516;29;20122;-77
2020/12/27 01:36:29;;;;;;;6.25;3.85;;;;;;;;;;4921686;29;20047;-77
2020/12/27 01:38:58;;;;;;;6.97;3.75;;;;;;;;;;4921366;29;20106;-77
2020/12/27 01:41:24;;;;;;;10.02;3.63;;;;;;;;;;4920840;29;20400;-77
2020/12/27 01:44:07;;;;;;;5.85;3.35;;;;;;;;;;4920804;29;20510;-77
2020/12/27 01:46:35;;;;;;;6.00;3.42;;;;;;;;;;4917596;29;20126;-77
2020/12/27 01:49:02;;;;;;;4.43;3.55;;;;;;;;;;4902030;29;20103;-77
2020/12/27 01:51:28;;;;;;;5.03;3.22;;;;;;;;;;4917707;29;20067;-76
2020/12/27 01:53:54;;;;;;;6.25;3.97;;;;;;;;;;4891227;29;20047;-77
2020/12/27 01:56:37;;;;;;;7.78;4.03;;;;;;;;;;4921226;29;20055;-77
2020/12/27 01:59:04;;;;;;;8.27;3.60;;;;;;;;;;4921778;29;20047;-77
2020/12/27 02:01:32;;;;;;;6.75;3.78;;;;;;;;;;4921851;29;20051;-77
2020/12/27 02:04:01;;;;;;;8.73;4.47;;;;;;;;;;4918255;29;20503;-77
2020/12/27 02:06:27;;;;;;;7.68;4.10;;;;;;;;;;4902264;29;20110;-77
2020/12/27 02:08:54;;;;;;;5.25;3.55;;;;;;;;;;4902908;29;20103;-77
2020/12/27 02:11:20;;;;;;;8.52;4.35;;;;;;;;;;4902602;29;20052;-77
2020/12/27 02:13:48;;;;;;;5.70;3.65;;;;;;;;;;4902255;29;20470;-77
2020/12/27 02:16:16;;;;;;;9.05;5.05;;;;;;;;;;4907790;29;20151;-77
2020/12/27 02:18:43;;;;;;;6.95;4.60;;;;;;;;;;4902588;29;20088;-77
2020/12/27 02:21:09;;;;;;;6.28;3.63;;;;;;;;;;4923618;29;20048;-77
2020/12/27 02:23:37;;;;;;;12.75;4.43;;;;;;;;;;4920355;29;20051;-78
2020/12/27 02:26:03;;;;;;;6.35;4.00;;;;;;;;;;4943884;29;20063;-77
2020/12/27 02:28:30;;;;;;;7.55;3.97;;;;;;;;;;4927739;29;20055;-78
2020/12/27 02:30:56;;;;;;;5.85;3.90;;;;;;;;;;4942988;29;20052;-79
2020/12/27 02:33:22;;;;;;;6.03;3.97;;;;;;;;;;4942183;29;20059;-78
2020/12/27 02:36:04;;;;;;;7.60;3.53;;;;;;;;;;4933347;29;20059;-79
2020/12/27 02:38:30;;;;;;;7.90;4.10;;;;;;;;;;4941144;29;20080;-78
2020/12/27 02:40:56;;;;;;;5.90;4.00;;;;;;;;;;4938309;29;20124;-78
2020/12/27 02:43:22;;;;;;;6.72;3.78;;;;;;;;;;4934565;29;20051;-77
2020/12/27 02:45:49;;;;;;;10.88;5.20;;;;;;;;;;4916493;29;20055;-77
2020/12/27 02:48:17;;;;;;;10.32;3.88;;;;;;;;;;4924059;29;20115;-77
2020/12/27 02:50:43;;;;;;;7.45;3.75;;;;;;;;;;4909864;29;20075;-78
2020/12/27 02:53:09;;;;;;;6.57;3.58;;;;;;;;;;4908386;29;20085;-77
2020/12/27 02:55:35;;;;;;;5.15;3.08;;;;;;;;;;4923892;29;20052;-77
2020/12/27 02:58:01;;;;;;;7.95;3.90;;;;;;;;;;4923274;29;20051;-78
2020/12/27 03:00:30;;;;;;;5.75;3.78;;;;;;;;;;4910073;29;20098;-79
2020/12/27 03:02:57;;;;;;;6.70;4.50;;;;;;;;;;4926666;29;20106;-78
2020/12/27 03:05:23;;;;;;;8.05;4.22;;;;;;;;;;4910352;29;20054;-79
2020/12/27 03:07:49;;;;;;;8.50;4.13;;;;;;;;;;4926604;29;20070;-79
2020/12/27 03:10:16;;;;;;;7.68;4.47;;;;;;;;;;4926264;29;20043;-79
2020/12/27 03:12:43;;;;;;;6.55;4.22;;;;;;;;;;4942002;29;20051;-78
2020/12/27 03:15:09;;;;;;;7.93;3.90;;;;;;;;;;4925429;29;20074;-77
2020/12/27 03:17:37;;;;;;;6.10;4.20;;;;;;;;;;4921770;29;20056;-77
2020/12/27 03:20:04;;;;;;;9.35;4.65;;;;;;;;;;4906176;29;20079;-78
2020/12/27 03:22:30;;;;;;;6.22;3.70;;;;;;;;;;4889444;29;20350;-77
2020/12/27 03:24:56;;;;;;;8.98;4.22;;;;;;;;;;4920976;29;20055;-78
2020/12/27 03:27:22;;;;;;;6.47;4.13;;;;;;;;;;4931283;29;20054;-77
2020/12/27 03:29:48;;;;;;;6.63;4.75;;;;;;;;;;4939387;29;20055;-76
2020/12/27 03:32:14;;;;;;;9.32;4.82;;;;;;;;;;4924302;29;20100;-76
2020/12/27 03:34:40;;;;;;;6.05;4.30;;;;;;;;;;4924404;29;20076;-77
2020/12/27 03:37:06;;;;;;;8.43;4.32;;;;;;;;;;4923850;29;20494;-77
2020/12/27 03:39:32;;;;;;;7.05;4.80;;;;;;;;;;4939852;29;20541;-77
2020/12/27 03:41:58;;;;;;;8.52;4.05;;;;;;;;;;4908688;29;20055;-77
2020/12/27 03:44:24;;;;;;;8.40;4.78;;;;;;;;;;4940047;29;20058;-77
2020/12/27 03:46:50;;;;;;;7.03;4.75;;;;;;;;;;4909238;29;20091;-79
2020/12/27 03:49:16;;;;;;;8.18;4.85;;;;;;;;;;4925169;29;20094;-78
2020/12/27 03:51:42;;;;;;;8.20;4.68;;;;;;;;;;4908788;29;20078;-78
2020/12/27 03:54:09;;;;;;;9.90;5.32;;;;;;;;;;4908910;29;20146;-79
2020/12/27 03:56:35;;;;;;;7.00;4.53;;;;;;;;;;4920859;29;20051;-78
2020/12/27 03:59:01;;;;;;;8.60;4.38;;;;;;;;;;4921702;29;20131;-77
2020/12/27 04:01:27;;;;;;;8.80;5.18;;;;;;;;;;4904652;29;20083;-76
2020/12/27 04:03:53;;;;;;;8.15;4.38;;;;;;;;;;4936158;29;20102;-76
2020/12/27 04:06:19;;;;;;;9.48;4.47;;;;;;;;;;4918879;29;20557;-75
2020/12/27 04:08:45;;;;;;;6.97;4.35;;;;;;;;;;4919265;29;20118;-76
2020/12/27 04:11:12;;;;;;;7.65;4.45;;;;;;;;;;4935857;29;20050;-77
2020/12/27 04:13:38;;;;;;;7.05;4.47;;;;;;;;;;4888034;29;20110;-77
2020/12/27 04:16:04;;;;;;;6.88;3.88;;;;;;;;;;4918856;29;20099;-77
2020/12/27 04:18:30;;;;;;;8.35;3.92;;;;;;;;;;4919399;29;20051;-77
2020/12/27 04:20:56;;;;;;;5.82;3.90;;;;;;;;;;4919005;29;20048;-78
2020/12/27 04:23:22;;;;;;;6.45;4.20;;;;;;;;;;4959322;23;20106;-73
2020/12/27 04:25:48;;;;;;;7.50;3.75;;;;;;;;;;4953392;29;20055;-73
2020/12/27 04:28:14;;;;;;;8.85;4.80;;;;;;;;;;4954669;29;20050;-73
2020/12/27 04:30:40;;;;;;;7.72;4.22;;;;;;;;;;4954614;29;20486;-73
2020/12/27 04:33:06;;;;;;;7.45;4.13;;;;;;;;;;4954553;29;20110;-74
2020/12/27 04:35:32;;;;;;;8.38;4.32;;;;;;;;;;4954359;28;20399;-74
2020/12/27 04:37:59;;;;;;;7.07;4.57;;;;;;;;;;4954985;28;20051;-74
2020/12/27 04:40:25;;;;;;;7.22;4.47;;;;;;;;;;4954064;28;20043;-73
2020/12/27 04:42:51;;;;;;;8.25;4.75;;;;;;;;;;4954241;28;20134;-73
2020/12/27 04:45:19;;;;;;;11.40;5.47;;;;;;;;;;4953093;29;20055;-73
2020/12/27 04:47:46;;;;;;;6.40;4.32;;;;;;;;;;4937623;29;20062;-74
2020/12/27 04:50:12;;;;;;;7.07;4.07;;;;;;;;;;4954442;28;20490;-76
2020/12/27 04:52:38;;;;;;;7.15;4.50;;;;;;;;;;4953189;29;20152;-75
2020/12/27 04:55:04;;;;;;;7.47;4.57;;;;;;;;;;4937331;29;20110;-74
2020/12/27 04:57:30;;;;;;;7.25;4.57;;;;;;;;;;4937230;29;20051;-75
2020/12/27 04:59:56;;;;;;;8.77;4.63;;;;;;;;;;4953157;28;20051;-76
2020/12/27 05:02:23;;;;;;;7.38;4.50;;;;;;;;;;4936952;29;20576;-75
2020/12/27 05:04:49;;;;;;;8.13;4.32;;;;;;;;;;4954168;28;20098;-75
2020/12/27 05:07:19;;;;;;;9.57;4.93;;;;;;;;;;4953813;28;20078;-75
2020/12/27 05:09:48;;;;;;;7.57;4.65;;;;;;;;;;4937125;29;20091;-75
2020/12/27 05:12:14;;;;;;;8.00;4.70;;;;;;;;;;4952567;28;20498;-75
2020/12/27 05:14:40;;;;;;;6.05;4.47;;;;;;;;;;4937007;29;20083;-75
2020/12/27 05:17:06;;;;;;;7.25;4.72;;;;;;;;;;4953864;28;20078;-75
2020/12/27 05:19:32;;;;;;;8.27;4.80;;;;;;;;;;4952901;29;20137;-75
2020/12/27 05:22:09;;;;;;;8.70;5.35;;;;;;;;;;4952583;28;20047;-75
2020/12/27 05:24:37;;;;;;;7.50;4.57;;;;;;;;;;4953762;28;20055;-75
2020/12/27 05:27:09;;;;;;;7.38;4.88;;;;;;;;;;4952591;28;20059;-75
2020/12/27 05:29:36;;;;;;;6.50;3.67;;;;;;;;;;4952666;29;20047;-75
2020/12/27 05:32:03;;;;;;;7.88;4.80;;;;;;;;;;4952677;29;20102;-75
2020/12/27 05:34:32;;;;;;;8.32;4.82;;;;;;;;;;4936779;29;20055;-75
2020/12/27 05:37:03;;;;;;;7.30;5.18;;;;;;;;;;4952512;28;20051;-76
2020/12/27 05:39:30;;;;;;;8.65;5.38;;;;;;;;;;4952460;29;20055;-76
2020/12/27 05:42:07;;;;;;;8.63;5.05;;;;;;;;;;4953556;28;20098;-75
2020/12/27 05:44:36;;;;;;;8.57;5.03;;;;;;;;;;4952703;29;20055;-75
2020/12/27 05:47:03;;;;;;;8.38;4.75;;;;;;;;;;4952401;29;20079;-76
2020/12/27 05:49:29;;;;;;;6.50;4.72;;;;;;;;;;4952183;28;20051;-74
2020/12/27 05:51:59;;;;;;;9.00;4.97;;;;;;;;;;4953887;28;20102;-74
2020/12/27 05:54:31;;;;;;;8.27;4.97;;;;;;;;;;4940597;29;20564;-76
2020/12/27 05:56:58;;;;;;;10.52;5.15;;;;;;;;;;4940893;29;20495;-75
2020/12/27 05:59:31;;;;;;;7.63;5.07;;;;;;;;;;4940421;29;20105;-75
2020/12/27 06:01:58;;;;;;;7.55;5.18;;;;;;;;;;4957257;28;20055;-75
2020/12/27 06:04:39;;;;;;;7.72;4.70;;;;;;;;;;4956121;28;20078;-75
2020/12/27 06:07:06;;;;;;;8.55;5.47;;;;;;;;;;4957132;28;20307;-75
2020/12/27 06:10:02;;;;;;;9.98;5.63;;;;;;;;;;4940192;29;20100;-76
2020/12/27 06:12:57;;;;;;;7.43;5.13;;;;;;;;;;4955888;28;20059;-75
2020/12/27 06:15:25;;;;;;;8.95;5.30;;;;;;;;;;4942380;28;20055;-76
2020/12/27 06:17:51;;;;;;;8.35;4.93;;;;;;;;;;4957172;28;20086;-74
2020/12/27 06:20:19;;;;;;;5.88;4.60;;;;;;;;;;4956978;28;20058;-74
2020/12/27 06:22:52;;;;;;;8.40;4.43;;;;;;;;;;4957036;28;20055;-74
2020/12/27 06:25:21;;;;;;;7.75;5.13;;;;;;;;;;4956829;28;20494;-77
2020/12/27 06:27:47;;;;;;;9.00;5.07;;;;;;;;;;4955751;29;20105;-74
2020/12/27 06:30:26;;;;;;;8.27;5.05;;;;;;;;;;4956994;28;20094;-74
2020/12/27 06:32:59;;;;;;;7.80;4.93;;;;;;;;;;4940064;29;20051;-74
2020/12/27 06:35:29;;;;;;;;;;;;;;;;;;4940298;29;20130;-74
2020/12/27 06:37:55;;;;;;;10.00;5.13;;;;;;;;;;4955447;28;20299;-74
2020/12/27 06:40:21;;;;;;;9.60;5.07;;;;;;;;;;4955472;29;20059;-74
2020/12/27 06:42:47;;;;;;;7.60;5.10;;;;;;;;;;4957142;28;20114;-74
2020/12/27 06:45:29;;;;;;;11.00;5.35;;;;;;;;;;4957701;28;20477;-74
2020/12/27 06:47:57;;;;;;;;;;;;;;;;;;4954872;29;20051;-75
2020/12/27 06:50:27;;;;;;;7.22;4.85;;;;;;;;;;4956450;28;19926;-75
2020/12/27 06:52:53;;;;;;;6.38;4.60;;;;;;;;;;4939598;29;20102;-76
2020/12/27 06:55:35;;;;;;;8.73;5.20;;;;;;;;;;4956284;28;20118;-76
2020/12/27 06:58:23;;;;;;;6.33;4.60;;;;;;;;;;4939939;29;20099;-74
2020/12/27 07:01:08;;;;;;;8.07;4.40;;;;;;;;;;4955335;29;20083;-74
2020/12/27 07:03:35;;;;;;;7.60;4.82;;;;;;;;;;4954748;28;20483;-75
2020/12/27 07:06:21;;;;;;;6.40;4.57;;;;;;;;;;4954832;29;20055;-74
2020/12/27 07:09:00;;;;;;;8.32;5.20;;;;;;;;;;4955359;29;20054;-75
2020/12/27 07:11:29;;;;;;;8.30;4.28;;;;;;;;;;4939136;29;20047;-75
2020/12/27 07:13:57;;;;;;;8.20;4.80;;;;;;;;;;4954746;29;20115;-76
2020/12/27 07:16:35;;;;;;;7.72;5.07;;;;;;;;;;4954761;28;20566;-74
2020/12/27 07:19:03;;;;;;;7.13;5.00;;;;;;;;;;4956153;29;20087;-75
2020/12/27 07:21:30;;;;;;;6.05;4.35;;;;;;;;;;4970675;28;20086;-75
2020/12/27 07:24:08;;;;;;;8.32;4.63;;;;;;;;;;4955679;29;20114;-73
2020/12/27 07:26:39;;;;;;;8.40;4.50;;;;;;;;;;4955682;29;20058;-73
2020/12/27 07:29:09;;;;;;;7.30;4.78;;;;;;;;;;4970675;28;20082;-74
2020/12/27 07:31:36;;;;;;;7.20;4.38;;;;;;;;;;4956122;29;20110;-74
2020/12/27 07:34:03;;;;;;;6.55;4.07;;;;;;;;;;4970469;28;20052;-75
2020/12/27 07:36:29;;;;;;;6.63;4.72;;;;;;;;;;4960850;28;20086;-75
2020/12/27 07:38:59;;;;;;;7.18;4.97;;;;;;;;;;4954663;29;20089;-75
2020/12/27 07:41:29;;;;;;;6.10;4.53;;;;;;;;;;4954550;28;20478;-75
2020/12/27 07:43:58;;;;;;;6.15;4.18;;;;;;;;;;4954348;29;20483;-75
2020/12/27 07:46:25;;;;;;;7.60;4.93;;;;;;;;;;4953982;29;20059;-76
2020/12/27 07:48:52;;;;;;;8.98;5.18;;;;;;;;;;4954358;28;20055;-76
2020/12/27 07:51:19;;;;;;;6.95;5.00;;;;;;;;;;4955495;28;20044;-76
2020/12/27 07:53:50;;;;;;;7.30;4.80;;;;;;;;;;4955317;28;20055;-76
2020/12/27 07:56:23;;;;;;;8.40;4.80;;;;;;;;;;4955108;28;20106;-76
2020/12/27 07:58:50;;;;;;;6.45;4.47;;;;;;;;;;4954202;29;20055;-76
2020/12/27 08:01:37;;;;;;;10.80;5.70;;;;;;;;;;4954021;28;20122;-76
2020/12/27 08:04:04;;;;;;;8.52;5.05;;;;;;;;;;4954645;28;20094;-76
2020/12/27 08:06:32;;;;;;;7.65;4.53;;;;;;;;;;4953780;29;20090;-77
2020/12/27 08:08:59;;;;;;;6.03;4.13;;;;;;;;;;4953969;28;20399;-76
2020/12/27 08:11:26;;;;;;;7.68;4.22;;;;;;;;;;4955067;28;20051;-76
2020/12/27 08:14:00;;;;;;;7.47;4.95;;;;;;;;;;4938101;29;20458;-76
2020/12/27 08:16:27;;;;;;;7.97;4.97;;;;;;;;;;4953873;28;20098;-75
2020/12/27 08:19:06;;;;;;;6.03;4.35;;;;;;;;;;4938073;29;20052;-76
2020/12/27 08:21:33;;;;;;;8.32;4.57;;;;;;;;;;4953905;28;20446;-75
2020/12/27 08:24:16;;;;;;;7.82;5.03;;;;;;;;;;4953695;29;20108;-72
2020/12/27 08:26:44;;;;;;;10.05;4.90;;;;;;;;;;4953683;28;20051;-75
2020/12/27 08:29:13;;;;;;;8.60;4.45;;;;;;;;;;4952852;29;20134;-75
2020/12/27 08:31:40;;;;;;;6.82;4.80;;;;;;;;;;4952932;29;20085;-77
2020/12/27 08:34:11;;;;;;;6.30;4.65;;;;;;;;;;4935541;29;20430;-76
2020/12/27 08:36:38;;;;;;;8.32;5.22;;;;;;;;;;4935556;29;20110;-77
2020/12/27 08:39:16;;;;;;;12.05;6.95;;;;;;;;;;4951247;29;20055;-76
2020/12/27 08:41:46;;;;;;;12.23;6.85;;;;;;;;;;4936622;29;20102;-77
2020/12/27 08:44:37;;;;;;;10.10;5.90;;;;;;;;;;4935100;29;20111;-77
2020/12/27 08:47:04;;;;;;;10.23;5.30;;;;;;;;;;4952182;28;20498;-77
2020/12/27 08:49:46;;;;;;;7.88;4.80;;;;;;;;;;4951182;29;20105;-77
2020/12/27 08:52:23;;;;;;;7.13;4.47;;;;;;;;;;4951267;29;20130;-77
2020/12/27 08:54:58;;;;;;;7.10;4.90;;;;;;;;;;4935323;29;20083;-75
2020/12/27 08:57:24;;;;;;;7.68;5.05;;;;;;;;;;4934648;29;20063;-77
2020/12/27 09:00:12;;;;;;;8.95;5.53;;;;;;;;;;4935278;29;20090;-76
2020/12/27 09:02:39;;;;;;;7.18;4.80;;;;;;;;;;4950938;29;20125;-77
2020/12/27 09:05:13;;;;;;;7.68;4.80;;;;;;;;;;4949219;28;20055;-76
2020/12/27 09:07:40;;;;;;;6.53;4.65;;;;;;;;;;4942047;29;20480;-75
2020/12/27 09:10:30;;;;;;;8.93;4.80;;;;;;;;;;4940359;29;20047;-75
2020/12/27 09:13:10;;;;;;;7.05;4.32;;;;;;;;;;4932278;29;20140;-76
2020/12/27 09:15:47;;;;;;;6.22;4.20;;;;;;;;;;4945428;29;20494;-75
2020/12/27 09:18:18;;;;;;;7.90;4.90;;;;;;;;;;4929960;29;20067;-75
2020/12/27 09:20:45;;;;;;;5.55;4.13;;;;;;;;;;4942135;29;20083;-74
2020/12/27 09:23:16;;;;;;;5.47;3.85;;;;;;;;;;4947167;28;20087;-71
2020/12/27 09:25:47;;;;;;;4.75;3.55;;;;;;;;;;4941553;29;20075;-71
2020/12/27 09:28:20;;;;;;;6.18;3.88;;;;;;;;;;4935840;29;20159;-71
2020/12/27 09:31:03;;;;;;;5.63;3.67;;;;;;;;;;4943310;29;20094;-71
2020/12/27 09:33:30;;;;;;;7.53;3.97;;;;;;;;;;4939820;28;20055;-72
2020/12/27 09:35:57;;;;;;;6.45;4.25;;;;;;;;;;4938761;29;20533;-74
2020/12/27 09:38:28;;;;;;;8.13;3.85;;;;;;;;;;4939245;28;20052;-75
2020/12/27 09:41:11;;;;;;;5.32;3.35;;;;;;;;;;4937069;29;20080;-75
2020/12/27 09:43:54;;;;;;;5.22;3.45;;;;;;;;;;4939785;28;20856;-74
2020/12/27 09:46:39;;;;;;;5.55;3.17;;;;;;;;;;4941361;29;20134;-75
2020/12/27 09:49:31;;;;;;;5.80;3.92;;;;;;;;;;4937321;29;20117;-73
2020/12/27 09:52:01;;;;;;;6.63;4.18;;;;;;;;;;4940776;29;20044;-73
2020/12/27 09:54:29;;;;;;;4.65;3.13;;;;;;;;;;4942495;28;20054;-72
2020/12/27 09:56:55;;;;;;;7.30;3.95;;;;;;;;;;4939338;28;20051;-72
2020/12/27 09:59:21;;;;;;;8.32;4.38;;;;;;;;;;4942665;29;20086;-72
2020/12/27 10:01:47;;;;;;;8.05;3.65;;;;;;;;;;4941441;28;20126;-73
2020/12/27 10:04:14;;;;;;;4.60;3.25;;;;;;;;;;4938610;29;20056;-71
2020/12/27 10:06:40;;;;;;;8.75;4.63;;;;;;;;;;4938415;28;20079;-71
2020/12/27 10:09:06;;;;;;;6.78;3.75;;;;;;;;;;4942237;29;20087;-73
2020/12/27 10:11:32;;;;;;;6.53;3.83;;;;;;;;;;4946318;29;20058;-72
2020/12/27 10:13:58;;;;;;;7.00;4.47;;;;;;;;;;4945889;28;20079;-72
2020/12/27 10:16:24;;;;;;;6.53;4.05;;;;;;;;;;4946505;28;20126;-72
2020/12/27 10:18:51;;;;;;;4.35;3.63;;;;;;;;;;4945303;28;20051;-72
2020/12/27 10:21:17;;;;;;;5.63;3.67;;;;;;;;;;4945852;29;20083;-72
2020/12/27 10:23:43;;;;;;;6.65;4.07;;;;;;;;;;4943178;29;20082;-72
2020/12/27 10:26:12;;;;;;;5.35;4.53;;;;;;;;;;4932159;29;20048;-74
2020/12/27 10:28:38;;;;;;;6.88;4.03;;;;;;;;;;4941378;29;20107;-73
2020/12/27 10:31:04;;;;;;;6.35;4.82;;;;;;;;;;4937122;29;20214;-70
2020/12/27 10:33:30;;;;;;;7.15;5.18;;;;;;;;;;4943521;29;20083;-69
2020/12/27 10:35:59;;;;;;;11.75;4.18;;;;;;;;;;4943907;28;20102;-71
2020/12/27 10:38:25;;;;;;;7.32;4.30;;;;;;;;;;4945204;29;20051;-70
2020/12/27 10:40:51;;;;;;;8.23;5.20;;;;;;;;;;4948736;28;20130;-71
2020/12/27 10:43:19;;;;;;;9.05;6.00;;;;;;;;;;4948984;29;20051;-71
2020/12/27 10:45:45;;;;;;;7.72;4.75;;;;;;;;;;4948259;28;20047;-71
2020/12/27 10:48:11;;;;;;;7.50;5.25;;;;;;;;;;4950825;28;20514;-70
2020/12/27 10:50:40;;;;;;;5.75;4.10;;;;;;;;;;4941700;29;20649;-70
2020/12/27 10:53:07;;;;;;;6.53;4.60;;;;;;;;;;4946730;28;20047;-71
2020/12/27 10:55:33;;;;;;;8.93;4.68;;;;;;;;;;4943693;28;20060;-70
2020/12/27 10:57:59;;;;;;;7.47;4.72;;;;;;;;;;4946634;29;20078;-70
2020/12/27 11:00:25;;;;;;;8.73;4.85;;;;;;;;;;4944842;28;20507;-70
2020/12/27 11:02:51;;;;;;;6.78;4.90;;;;;;;;;;4946578;29;20125;-70
2020/12/27 11:05:17;;;;;;;4.93;3.70;;;;;;;;;;4940464;28;20081;-72
2020/12/27 11:07:43;;;;;;;5.65;3.80;;;;;;;;;;4942724;28;20558;-71
2020/12/27 11:10:09;;;;;;;7.97;4.25;;;;;;;;;;4949122;29;20056;-73
2020/12/27 11:12:35;;;;;;;11.00;4.47;;;;;;;;;;4947952;29;20075;-72
2020/12/27 11:15:01;;;;;;;6.07;4.47;;;;;;;;;;4942071;29;20118;-75
2020/12/27 11:17:27;;;;;;;7.05;4.15;;;;;;;;;;4939170;29;20561;-75
2020/12/27 11:19:53;;;;;;;5.82;3.92;;;;;;;;;;4939152;29;20048;-77
2020/12/27 11:22:19;;;;;;;6.60;4.53;;;;;;;;;;4945704;29;20066;-72
2020/12/27 11:24:46;;;;;;;7.43;4.10;;;;;;;;;;4944512;29;20070;-71
2020/12/27 11:27:12;;;;;;;5.95;4.20;;;;;;;;;;4945244;28;20064;-73
2020/12/27 11:29:38;;;;;;;6.55;4.55;;;;;;;;;;4942916;29;20098;-73
2020/12/27 11:32:04;;;;;;;6.05;4.00;;;;;;;;;;4945255;28;20117;-72
2020/12/27 11:34:30;;;;;;;5.95;3.72;;;;;;;;;;4943231;28;20099;-72
2020/12/27 11:36:56;;;;;;;6.75;4.15;;;;;;;;;;4939770;29;20131;-72
2020/12/27 11:39:22;;;;;;;7.60;3.95;;;;;;;;;;4941535;29;20106;-72
2020/12/27 11:41:51;;;;;;;4.85;3.72;;;;;;;;;;4939955;29;20079;-72
2020/12/27 11:44:17;;;;;;;7.60;4.10;;;;;;;;;;4941062;29;20056;-72
2020/12/27 11:46:43;;;;;;;5.63;3.85;;;;;;;;;;4952415;28;20404;-72
2020/12/27 11:49:09;;;;;;;8.63;4.22;;;;;;;;;;4953904;28;20055;-72
2020/12/27 11:51:35;;;;;;;4.60;3.60;;;;;;;;;;4953588;28;20593;-72
2020/12/27 11:54:01;;;;;;;4.82;3.60;;;;;;;;;;4953499;28;20579;-72
2020/12/27 11:56:28;;;;;;;4.63;3.65;;;;;;;;;;4952622;28;20059;-72
2020/12/27 11:58:54;;;;;;;4.85;3.70;;;;;;;;;;4951502;28;20051;-72
2020/12/27 12:01:21;;;;;;;6.22;3.35;;;;;;;;;;4951309;29;20051;-73
2020/12/27 12:03:47;;;;;;;5.60;3.88;;;;;;;;;;4953582;28;20047;-72
2020/12/27 12:06:20;;;;;;;6.65;3.53;;;;;;;;;;4953242;28;20051;-72
2020/12/27 12:08:46;;;;;;;5.68;4.03;;;;;;;;;;4953677;28;20470;-73
2020/12/27 12:11:13;;;;;;;5.70;3.30;;;;;;;;;;4952853;28;20105;-72
2020/12/27 12:13:39;;;;;;;5.85;4.47;;;;;;;;;;4952821;28;20051;-72
2020/12/27 12:16:06;;;;;;;4.65;4.00;;;;;;;;;;4952627;29;20051;-73
2020/12/27 12:18:32;;;;;;;4.88;3.63;;;;;;;;;;4953194;29;20079;-72
2020/12/27 12:20:58;;;;;;;7.10;3.78;;;;;;;;;;4952976;29;20141;-72
2020/12/27 12:23:24;;;;;;;7.20;3.88;;;;;;;;;;4952128;28;20117;-71
2020/12/27 12:25:50;;;;;;;5.35;4.13;;;;;;;;;;4952643;29;20106;-72
2020/12/27 12:28:16;;;;;;;5.57;3.83;;;;;;;;;;4951346;29;20081;-71
2020/12/27 12:30:43;;;;;;;5.25;3.20;;;;;;;;;;4952763;29;20059;-71
2020/12/27 12:33:10;;;;;;;6.43;4.05;;;;;;;;;;4951020;29;20051;-71
2020/12/27 12:35:38;;;;;;;9.40;5.28;;;;;;;;;;4946512;28;20106;-71
2020/12/27 12:38:04;;;;;;;13.40;6.10;;;;;;;;;;4943919;28;20300;-71
2020/12/27 12:40:30;;;;;;;11.30;6.13;;;;;;;;;;4945128;29;20142;-71
2020/12/27 12:42:57;;;;;;;6.90;5.25;;;;;;;;;;4936720;29;20624;-71
2020/12/27 12:45:23;;;;;;;8.60;5.55;;;;;;;;;;4939384;29;20413;-70
2020/12/27 12:47:49;;;;;;;6.93;4.85;;;;;;;;;;4938499;29;20094;-70
2020/12/27 12:50:15;;;;;;;6.47;4.75;;;;;;;;;;4940463;29;20895;-71
2020/12/27 12:52:41;;;;;;;4.30;3.63;;;;;;;;;;4941843;29;20380;-70
2020/12/27 12:55:07;;;;;;;6.18;4.43;;;;;;;;;;4952266;28;20086;-71
2020/12/27 12:57:33;;;;;;;5.60;4.20;;;;;;;;;;4952303;29;20149;-72
2020/12/27 12:59:59;;;;;;;8.38;4.40;;;;;;;;;;4951363;29;20419;-72
2020/12/27 13:02:25;;;;;;;5.22;3.70;;;;;;;;;;4950937;28;20114;-71
2020/12/27 13:04:51;;;;;;;5.70;4.15;;;;;;;;;;4951030;29;20051;-72
2020/12/27 13:07:18;;;;;;;5.03;3.88;;;;;;;;;;4950464;29;20051;-71
2020/12/27 13:09:44;;;;;;;8.23;4.18;;;;;;;;;;4951957;29;20106;-71
2020/12/27 13:12:28;;;;;;;8.85;4.78;;;;;;;;;;4949984;29;20422;-71
2020/12/27 13:14:54;;;;;;;6.68;4.15;;;;;;;;;;4951944;28;20117;-72
2020/12/27 13:17:20;;;;;;;7.18;4.80;;;;;;;;;;4951143;28;20047;-71
2020/12/27 13:19:46;;;;;;;7.53;4.30;;;;;;;;;;4951885;28;20047;-71
2020/12/27 13:22:12;;;;;;;6.32;4.18;;;;;;;;;;4951546;29;20074;-72
2020/12/27 13:24:38;;;;;;;6.32;3.88;;;;;;;;;;4951831;29;20051;-71
2020/12/27 13:27:04;;;;;;;6.45;4.35;;;;;;;;;;4951453;29;20050;-71
2020/12/27 13:29:30;;;;;;;6.28;4.15;;;;;;;;;;4951382;28;20541;-71
2020/12/27 13:31:56;;;;;;;5.18;4.20;;;;;;;;;;4951580;29;20542;-72
2020/12/27 13:34:22;;;;;;;6.90;4.85;;;;;;;;;;4951583;28;20043;-71
2020/12/27 13:36:48;;;;;;;7.10;4.00;;;;;;;;;;4951485;29;20043;-71
2020/12/27 13:39:15;;;;;;;4.88;4.35;;;;;;;;;;4951557;28;20490;-71
2020/12/27 13:41:41;;;;;;;6.90;5.05;;;;;;;;;;4951010;29;20055;-72
2020/12/27 13:44:07;;;;;;;5.20;4.00;;;;;;;;;;4951506;29;20051;-72
2020/12/27 13:46:36;;;;;;;6.90;3.92;;;;;;;;;;4951359;28;20130;-71
2020/12/27 13:49:04;;;;;;;5.82;4.00;;;;;;;;;;4950052;29;20477;-72
2020/12/27 13:51:30;;;;;;;4.78;4.07;;;;;;;;;;4942388;29;20072;-71
2020/12/27 13:53:56;;;;;;;4.72;3.80;;;;;;;;;;4951474;28;20047;-71
2020/12/27 13:56:24;;;;;;;6.40;3.70;;;;;;;;;;4948255;29;20622;-72
2020/12/27 13:58:51;;;;;;;4.85;3.72;;;;;;;;;;4950478;29;20106;-71
2020/12/27 14:01:17;;;;;;;8.20;4.00;;;;;;;;;;4933544;29;20055;-70
2020/12/27 14:03:45;;;;;;;5.43;3.70;;;;;;;;;;4949878;29;20499;-70
2020/12/27 14:06:11;;;;;;;6.35;4.30;;;;;;;;;;4934049;29;20454;-69
2020/12/27 14:08:38;;;;;;;8.65;3.55;;;;;;;;;;4949877;29;20058;-70
2020/12/27 14:11:08;;;;;;;4.03;3.60;;;;;;;;;;4951265;28;20075;-71
2020/12/27 14:13:35;;;;;;;5.15;4.00;;;;;;;;;;4951286;28;20506;-71
2020/12/27 14:16:01;;;;;;;5.63;4.55;;;;;;;;;;4953815;28;20043;-70
2020/12/27 14:18:27;;;;;;;4.43;3.53;;;;;;;;;;4955338;28;20055;-71
2020/12/27 14:20:54;;;;;;;5.47;3.63;;;;;;;;;;4955160;28;20082;-70
2020/12/27 14:23:20;;;;;;;7.35;4.85;;;;;;;;;;4955080;28;20053;-70
2020/12/27 14:25:46;;;;;;;7.55;4.53;;;;;;;;;;4969999;28;20059;-70
2020/12/27 14:28:12;;;;;;;6.00;3.92;;;;;;;;;;4953662;29;20055;-70
2020/12/27 14:30:38;;;;;;;5.90;3.55;;;;;;;;;;4952029;29;20062;-70
2020/12/27 14:33:04;;;;;;;6.57;3.83;;;;;;;;;;4955103;28;20058;-70
2020/12/27 14:35:30;;;;;;;4.75;3.42;;;;;;;;;;4954511;28;20055;-70
2020/12/27 14:37:57;;;;;;;7.07;3.22;;;;;;;;;;4954916;28;20077;-70
2020/12/27 14:40:33;;;;;;;4.93;3.45;;;;;;;;;;4954910;28;20059;-70
2020/12/27 14:43:00;;;;;;;5.13;3.28;;;;;;;;;;4953821;28;20079;-71
2020/12/27 14:45:26;;;;;;;5.03;3.60;;;;;;;;;;4954673;28;20308;-70
2020/12/27 14:47:52;;;;;;;5.15;3.80;;;;;;;;;;4954434;28;20046;-70
2020/12/27 14:50:18;;;;;;;9.35;4.47;;;;;;;;;;4953307;28;20443;-70